This is the latest recevied weather packets stored in our database for station/object SR6WVX. If no packets are shown the sender has not sent any weather packets the latest 10 day(s).
| Time | Temp. | Humidity | Pressure | Rain* | Wind** | Luminosity | Snow |
|---|---|---|---|---|---|---|---|
| 1777562469 | 21.11° C | 30% | 1023.9 hPa | 0 mm | - | - | - |
| 1777562169 | 20.56° C | 30% | 1023.9 hPa | 0 mm | - | - | - |
| 1777561868 | 20° C | 30% | 1023.7 hPa | 0 mm | - | - | - |
| 1777561568 | 18.89° C | 32% | 1023.9 hPa | 0 mm | - | - | - |
| 1777561268 | 17.78° C | 35% | 1024.1 hPa | 0 mm | - | - | - |
| 1777560968 | 16.11° C | 36% | 1024.2 hPa | 0 mm | - | - | - |
| 1777560667 | 15.56° C | 35% | 1024.2 hPa | 0 mm | - | - | - |
| 1777560367 | 15.56° C | 35% | 1024.2 hPa | 0 mm | - | - | - |
| 1777560067 | 15.56° C | 35% | 1024.2 hPa | 0 mm | - | - | - |
| 1777559767 | 16.67° C | 34% | 1024.3 hPa | 0 mm | - | - | - |
| 1777559466 | 16.67° C | 34% | 1024.2 hPa | 0 mm | - | - | - |
| 1777559166 | 16.67° C | 33% | 1024.4 hPa | 0 mm | - | - | - |
| 1777558866 | 17.78° C | 32% | 1024.4 hPa | 0 mm | - | - | - |
| 1777558566 | 17.78° C | 33% | 1024.3 hPa | 0 mm | - | - | - |
| 1777558265 | 17.22° C | 34% | 1024.5 hPa | 0 mm | - | - | - |
| 1777557965 | 16.67° C | 33% | 1024.5 hPa | 0 mm | - | - | - |
| 1777557665 | 17.22° C | 32% | 1024.7 hPa | 0 mm | - | - | - |
| 1777557364 | 17.78° C | 32% | 1024.7 hPa | 0 mm | - | - | - |
| 1777557064 | 17.78° C | 32% | 1024.6 hPa | 0 mm | - | - | - |
| 1777556764 | 17.78° C | 32% | 1024.5 hPa | 0 mm | - | - | - |
| 1777556464 | 17.78° C | 32% | 1024.5 hPa | 0 mm | - | - | - |
| 1777556163 | 17.22° C | 32% | 1024.7 hPa | 0 mm | - | - | - |
| 1777555863 | 17.22° C | 33% | 1024.8 hPa | 0 mm | - | - | - |
| 1777555563 | 16.67° C | 32% | 1025 hPa | 0 mm | - | - | - |
| 1777555263 | 17.78° C | 30% | 1025 hPa | 0 mm | - | - | - |
* Rain latest hour (hover to see other rain measurements)
** Current wind speed in m/s (hover to see current wind gust speed)